LIPQ METAR and TAF | Updated Today

LIPQ METAR

Trieste–Friuli Venezia Giulia Airport

Observation time: 66:18 hr. ago

LIPQ 270320Z AUTO 10005KT 9999 BKN160/// 13/12 Q0999

Need help? Read our tutorial on how to read METARs or read the parsed version below.

Trieste–Friuli Venezia Giulia Airport (LIPQ) METAR

  • Weather conditions on Tue, 27 Sep 2022 03:20:00 +0000 (66:18 hr. ago):
  • Present conditions: Dry
  • Clouds: Broken sky at 4877 meters
  • Visibility: Greater than 10 km
  • Wind: 100 degrees at 5 knots
  • Temperature: 13 celsius
  • Dew point: 12 celsius
  • Pressure: 999 millibars
  • Remarks: None


Useful to know...

LIPQ TAF

Trieste–Friuli Venezia Giulia Airport

TAF LIPQ 262300Z 2700/2724 VRB05KT 9999 BKN020 TEMPO 2700/2710 3000 TSRA
Observation time: 70:38 hr. ago
Need help? Read our tutorial on how to read TAFs or read the parsed version below.

Parsed version of TAF for Trieste–Friuli Venezia Giulia Airport (LIPQ)

  • From 27 September at 00:00 UTC, to day 27 of the month at 24:00 UTC
  • Clouds: Broken sky at 610 meters
  • Visibility: Greater than 10 km
  • Wind: Variable at 5
  • Expected to arise temporarily, from 27 September at 00:00 UTC, to day 27 of the month at 10:00 UTC
  • Visibility: 3000 meters
  • Other: Thunderstorms rain